Memphis International Airport

KMEM | MEM

Memphis , Tennessee , United States

Sunday, January 26th, 2020 | 17:06

Weather

KMEM 262254Z 21007KT 7SM BKN007 OVC034 09/08 A2998 RMK AO2 SLP152 T00940083

Charts

82 Available

Gates

286 Available

Runways

4 Available

Events

No events for this airport


New event